createdAt,value
2022-09-17T00:04:58.738Z,2.45
2022-09-17T00:10:01.333Z,4.23
2022-09-17T00:15:04.028Z,6.27
2022-09-17T00:20:10.359Z,4.97
2022-09-17T00:25:12.992Z,3.67
2022-09-17T00:30:15.599Z,3.35
2022-09-17T00:35:18.196Z,3.63
2022-09-17T00:40:23.781Z,3.90
2022-09-17T00:45:28.196Z,3.58
2022-09-17T00:50:37.085Z,2.38
2022-09-17T00:55:43.017Z,2.78
2022-09-17T01:00:47.478Z,4.30
2022-09-17T01:05:54.036Z,3.15
2022-09-17T01:10:59.511Z,6.15
2022-09-17T01:16:24.705Z,4.35
2022-09-17T01:21:36.213Z,3.42
2022-09-17T01:27:12.819Z,4.88
2022-09-17T01:32:22.900Z,1.88
2022-09-17T01:37:42.601Z,2.60
2022-09-17T01:42:54.405Z,3.20
2022-09-17T01:48:06.149Z,5.28
2022-09-17T01:53:10.694Z,7.70
2022-09-17T01:58:17.665Z,4.90
2022-09-17T02:03:26.565Z,3.33
2022-09-17T02:08:46.203Z,2.80
2022-09-17T02:13:54.835Z,1.85
2022-09-17T02:19:07.698Z,27.67
2022-09-17T02:24:23.838Z,14.60
2022-09-17T02:29:32.990Z,10.23
2022-09-17T02:34:35.947Z,6.95
2022-09-17T02:39:38.750Z,4.70
2022-09-17T02:44:55.492Z,3.60
2022-09-17T02:50:03.755Z,5.10
2022-09-17T02:55:20.256Z,4.22
2022-09-17T03:00:23.579Z,2.83
2022-09-17T03:05:26.563Z,1.70
2022-09-17T03:10:33.055Z,2.35
2022-09-17T03:15:35.734Z,2.03
2022-09-17T03:20:38.273Z,1.13
2022-09-17T03:25:40.548Z,1.20
2022-09-17T03:30:47.028Z,2.20
2022-09-17T03:35:50.902Z,2.58
2022-09-17T03:41:07.552Z,6.90
2022-09-17T03:46:10.633Z,14.30
2022-09-17T03:51:13.192Z,5.93
2022-09-17T03:56:15.710Z,5.25
2022-09-17T04:01:21.110Z,3.13
2022-09-17T04:06:23.993Z,3.28
2022-09-17T04:11:27.085Z,2.13
2022-09-17T04:16:29.515Z,3.17
2022-09-17T04:21:31.968Z,3.15
2022-09-17T04:26:34.270Z,2.80
2022-09-17T04:31:37.167Z,11.30
2022-09-17T04:36:39.592Z,17.05
2022-09-17T04:41:41.935Z,9.43
2022-09-17T04:46:44.900Z,6.20
2022-09-17T04:51:47.620Z,5.53
2022-09-17T04:56:50.637Z,6.67
2022-09-17T05:01:53.116Z,4.07
2022-09-17T05:06:55.714Z,6.90
2022-09-17T05:11:58.286Z,2.90
2022-09-17T05:17:00.806Z,3.93
2022-09-17T05:22:03.502Z,4.43
2022-09-17T05:27:06.784Z,3.97
2022-09-17T05:32:09.307Z,5.05
2022-09-17T05:37:11.842Z,4.00
2022-09-17T05:42:14.614Z,3.03
2022-09-17T05:47:17.040Z,4.88
2022-09-17T05:52:19.861Z,11.80
2022-09-17T05:57:22.375Z,9.00
2022-09-17T06:02:24.875Z,5.05
2022-09-17T06:07:28.252Z,5.05
2022-09-17T06:12:30.879Z,6.65
2022-09-17T06:17:35.320Z,6.93
2022-09-17T06:22:37.809Z,6.55
2022-09-17T06:27:40.248Z,6.65
2022-09-17T06:32:43.197Z,8.10
2022-09-17T06:37:45.845Z,4.78
2022-09-17T06:42:48.331Z,4.53
2022-09-17T06:47:50.885Z,7.13
2022-09-17T06:52:54.639Z,6.53
2022-09-17T06:57:59.240Z,2.72
2022-09-17T07:03:02.703Z,7.93
2022-09-17T07:08:05.399Z,3.53
2022-09-17T07:13:07.944Z,7.25
2022-09-17T07:18:11.879Z,3.53
2022-09-17T07:23:14.307Z,3.00
2022-09-17T07:28:16.585Z,4.50
2022-09-17T07:33:23.545Z,2.95
2022-09-17T07:38:26.995Z,2.90
2022-09-17T07:43:33.696Z,3.85
2022-09-17T07:48:37.464Z,3.47
2022-09-17T07:53:39.908Z,3.57
2022-09-17T07:58:43.063Z,3.80
2022-09-17T08:03:51.107Z,3.13
2022-09-17T08:08:54.483Z,2.58
2022-09-17T08:13:57.399Z,10.75
2022-09-17T08:18:59.745Z,12.73
2022-09-17T08:24:02.421Z,6.50
2022-09-17T08:29:05.666Z,6.80
2022-09-17T08:34:09.785Z,4.43
2022-09-17T08:39:12.786Z,2.80
2022-09-17T08:44:41.887Z,2.33
2022-09-17T08:49:47.833Z,3.42
2022-09-17T08:55:21.957Z,3.55
2022-09-17T09:00:34.820Z,6.03
2022-09-17T09:05:56.534Z,3.17
2022-09-17T09:11:01.703Z,3.60
2022-09-17T09:16:08.007Z,11.73
2022-09-17T09:21:10.603Z,13.88
2022-09-17T09:26:22.260Z,4.60
2022-09-17T09:31:27.510Z,6.05
2022-09-17T09:36:33.244Z,12.55
2022-09-17T09:41:48.788Z,14.05
2022-09-17T09:47:13.452Z,24.27
2022-09-17T09:52:33.191Z,10.25
2022-09-17T09:57:40.853Z,14.32
2022-09-17T10:02:43.848Z,31.10
2022-09-17T10:07:47.063Z,36.58
2022-09-17T10:12:49.658Z,48.25
2022-09-17T10:18:13.755Z,54.47
2022-09-17T10:23:16.354Z,21.92
2022-09-17T10:28:33.239Z,7.70
2022-09-17T10:33:56.008Z,8.85
2022-09-17T10:38:59.056Z,9.43
2022-09-17T10:44:17.703Z,6.32
2022-09-17T10:49:41.510Z,7.78
2022-09-17T10:54:55.778Z,3.42
2022-09-17T11:00:24.438Z,4.53
2022-09-17T11:05:52.300Z,7.30
2022-09-17T11:11:11.812Z,9.07
2022-09-17T11:16:45.067Z,6.72
2022-09-17T11:21:57.493Z,4.32
2022-09-17T11:27:06.031Z,4.50
2022-09-17T11:32:49.190Z,9.23
2022-09-17T11:38:08.926Z,5.25
2022-09-17T11:43:28.603Z,10.23
2022-09-17T11:48:45.231Z,6.47
2022-09-17T11:53:51.849Z,8.55
2022-09-17T11:59:36.207Z,9.25
2022-09-17T12:04:57.846Z,7.85
2022-09-17T12:10:25.476Z,10.23
2022-09-17T12:15:30.297Z,9.00
2022-09-17T12:20:36.397Z,11.35
2022-09-17T12:25:53.251Z,9.63
2022-09-17T12:31:21.114Z,23.85
2022-09-17T12:36:38.042Z,7.85
2022-09-17T12:41:55.482Z,5.65
2022-09-17T12:47:05.378Z,9.98
2022-09-17T12:52:21.794Z,15.52
2022-09-17T12:57:46.483Z,15.85
2022-09-17T13:02:59.447Z,48.75
2022-09-17T13:08:30.536Z,20.85
2022-09-17T13:13:44.127Z,13.50
2022-09-17T13:19:23.356Z,7.28
2022-09-17T13:24:29.927Z,7.88
2022-09-17T13:29:53.920Z,10.13
2022-09-17T13:34:56.309Z,29.70
2022-09-17T13:40:00.879Z,15.37
2022-09-17T13:45:13.292Z,14.02
2022-09-17T13:50:31.495Z,9.15
2022-09-17T13:55:36.014Z,8.10
2022-09-17T14:01:09.462Z,8.93
2022-09-17T14:06:14.909Z,6.82
2022-09-17T14:11:27.731Z,8.57
2022-09-17T14:22:27.059Z,10.88
2022-09-17T14:27:48.324Z,7.70
2022-09-17T14:33:17.722Z,5.70
2022-09-17T14:38:26.089Z,7.05
2022-09-17T14:43:39.324Z,5.57
2022-09-17T14:48:42.422Z,7.07
2022-09-17T14:53:45.785Z,25.87
2022-09-17T14:58:52.164Z,18.65
2022-09-17T15:04:23.961Z,38.63
2022-09-17T15:09:27.921Z,28.55
2022-09-17T15:14:32.325Z,23.67
2022-09-17T15:19:37.929Z,23.90
2022-09-17T15:24:50.659Z,21.52
2022-09-17T15:30:02.465Z,19.52
2022-09-17T15:35:16.115Z,21.88
2022-09-17T15:40:52.090Z,13.52
2022-09-17T15:45:58.372Z,8.43
2022-09-17T15:51:14.483Z,5.32
2022-09-17T15:56:18.816Z,6.60
2022-09-17T16:01:24.386Z,6.43
2022-09-17T16:06:27.041Z,3.72
2022-09-17T16:11:31.941Z,4.15
2022-09-17T16:16:37.085Z,9.60
2022-09-17T16:21:40.797Z,7.95
2022-09-17T16:26:44.681Z,7.10
2022-09-17T16:31:47.296Z,5.30
2022-09-17T16:36:52.411Z,11.90
2022-09-17T16:42:36.328Z,6.70
2022-09-17T16:47:40.521Z,8.55
2022-09-17T16:52:43.261Z,17.85
2022-09-17T17:03:18.030Z,11.30
2022-09-17T17:19:54.486Z,20.33
2022-09-17T17:25:14.814Z,27.30
2022-09-17T17:30:23.671Z,25.05
2022-09-17T17:35:28.704Z,13.68
2022-09-17T17:40:31.166Z,8.20
2022-09-17T17:51:21.495Z,14.60
2022-09-17T17:57:23.701Z,18.88
2022-09-17T18:02:33.920Z,12.57
2022-09-17T18:07:47.364Z,12.50
2022-09-17T18:13:48.133Z,11.32
2022-09-17T18:18:50.933Z,15.80
2022-09-17T18:23:59.393Z,14.57
2022-09-17T18:29:22.006Z,43.10
2022-09-17T18:34:46.156Z,35.17
2022-09-17T18:40:32.417Z,15.52
2022-09-17T18:46:04.634Z,17.92
2022-09-17T18:51:13.784Z,18.08
2022-09-17T18:57:04.479Z,23.55
2022-09-17T19:02:37.067Z,29.08
2022-09-17T19:13:45.357Z,13.77
2022-09-17T19:18:56.267Z,10.00
2022-09-17T19:24:04.165Z,4.82
2022-09-17T19:29:08.523Z,7.00
2022-09-17T19:34:21.383Z,8.13
2022-09-17T19:39:40.256Z,6.90
2022-09-17T19:44:56.364Z,12.70
2022-09-17T19:50:28.369Z,7.55
2022-09-17T19:55:50.753Z,8.18
2022-09-17T20:00:57.678Z,6.38
2022-09-17T20:06:07.564Z,7.32
2022-09-17T20:11:11.407Z,7.90
2022-09-17T20:16:20.767Z,5.82
2022-09-17T20:21:29.424Z,3.13
2022-09-17T20:26:33.502Z,3.03
2022-09-17T20:31:41.028Z,2.55
2022-09-17T20:36:44.883Z,4.25
2022-09-17T20:41:47.651Z,8.23
2022-09-17T20:46:50.376Z,13.90
2022-09-17T20:52:20.408Z,17.42
2022-09-17T20:57:36.161Z,9.73
2022-09-17T21:02:59.503Z,10.27
2022-09-17T21:08:23.705Z,10.10
2022-09-17T21:14:18.472Z,4.78
2022-09-17T21:19:23.226Z,7.82
2022-09-17T21:24:35.434Z,9.80
2022-09-17T21:35:53.729Z,5.43
2022-09-17T21:46:49.775Z,9.23
2022-09-17T21:52:01.757Z,7.28
2022-09-17T21:57:05.830Z,5.38
2022-09-17T22:02:09.600Z,3.90
2022-09-17T22:07:19.213Z,6.97
2022-09-17T22:12:44.605Z,4.60
2022-09-17T22:17:50.944Z,7.13
2022-09-17T22:22:56.409Z,13.43
2022-09-17T22:28:19.579Z,8.27
2022-09-17T22:33:50.641Z,4.22
2022-09-17T22:38:58.242Z,5.80
2022-09-17T22:44:08.008Z,3.45
2022-09-17T22:49:32.178Z,3.08
2022-09-17T22:54:42.700Z,2.28
2022-09-17T23:00:05.581Z,1.77
2022-09-17T23:05:11.081Z,1.73
2022-09-17T23:10:24.430Z,3.15
2022-09-17T23:15:38.616Z,2.50
2022-09-17T23:20:41.638Z,3.40
2022-09-17T23:25:43.937Z,2.88
2022-09-17T23:30:46.688Z,2.47
2022-09-17T23:35:52.055Z,2.90
2022-09-17T23:41:18.695Z,4.30
2022-09-17T23:52:18.292Z,3.13
2022-09-17T23:57:25.351Z,4.78
